WJA28 CYYC-CYEG
Flight info
| Callsign | WJA28 |
|---|---|
| Flight time | 0h 31m |
| Altitude | 20000 |
| Route | BITGA Q995 OILRS OILRS2 |
| Aircraft | B738/M-SDE2E3FGHIRWXY/LB1 |
Departure
| Time | 2026-04-29 02:17 |
|---|---|
| Airport | Calgary International Airport (CYYC) |
Arrival
| Time | 2026-04-29 02:48 |
|---|---|
| Airport | Edmonton International Airport (CYEG) |
| Time | Latitude | Longitude | Altitude | Speed | Heading |
|---|---|---|---|---|---|
| 2026-04-29 01:28 | 51.12869 | -114.00760 | 3531 ft | 0 kts | 277° |
| 2026-04-29 01:58 | 51.12869 | -114.00759 | 3549 ft | 1 kts | 277° |
| 2026-04-29 01:59 | 51.12867 | -114.00738 | 3550 ft | 3 kts | 276° |
| 2026-04-29 01:59 | 51.12865 | -114.00706 | 3550 ft | 3 kts | 271° |
| 2026-04-29 01:59 | 51.12866 | -114.00674 | 3550 ft | 3 kts | 256° |
| 2026-04-29 01:59 | 51.12873 | -114.00648 | 3546 ft | 3 kts | 215° |
| 2026-04-29 02:00 | 51.12881 | -114.00641 | 3551 ft | 0 kts | 180° |
| 2026-04-29 02:02 | 51.12880 | -114.00641 | 3551 ft | 1 kts | 180° |
| 2026-04-29 02:02 | 51.12871 | -114.00641 | 3550 ft | 2 kts | 179° |
| 2026-04-29 02:02 | 51.12851 | -114.00641 | 3551 ft | 4 kts | 179° |
| 2026-04-29 02:03 | 51.12819 | -114.00640 | 3549 ft | 5 kts | 179° |
| 2026-04-29 02:03 | 51.12779 | -114.00638 | 3551 ft | 6 kts | 179° |
| 2026-04-29 02:03 | 51.12751 | -114.00639 | 3551 ft | 0 kts | 183° |
| 2026-04-29 02:03 | 51.12749 | -114.00639 | 3551 ft | 0 kts | 183° |
| 2026-04-29 02:05 | 51.12742 | -114.00640 | 3550 ft | 4 kts | 181° |
| 2026-04-29 02:05 | 51.12682 | -114.00639 | 3552 ft | 11 kts | 180° |
| 2026-04-29 02:05 | 51.12624 | -114.00675 | 3552 ft | 9 kts | 238° |
| 2026-04-29 02:06 | 51.12614 | -114.00775 | 3551 ft | 9 kts | 270° |
| 2026-04-29 02:06 | 51.12615 | -114.00878 | 3551 ft | 10 kts | 270° |
| 2026-04-29 02:06 | 51.12613 | -114.00998 | 3549 ft | 12 kts | 268° |
| 2026-04-29 02:06 | 51.12608 | -114.01138 | 3547 ft | 13 kts | 266° |
| 2026-04-29 02:07 | 51.12604 | -114.01284 | 3547 ft | 13 kts | 269° |
| 2026-04-29 02:07 | 51.12602 | -114.01425 | 3545 ft | 13 kts | 260° |
| 2026-04-29 02:07 | 51.12551 | -114.01533 | 3539 ft | 12 kts | 218° |
| 2026-04-29 02:07 | 51.12471 | -114.01563 | 3542 ft | 12 kts | 181° |
| 2026-04-29 02:08 | 51.12389 | -114.01566 | 3541 ft | 12 kts | 180° |
| 2026-04-29 02:08 | 51.12308 | -114.01566 | 3545 ft | 11 kts | 180° |
| 2026-04-29 02:08 | 51.12230 | -114.01566 | 3549 ft | 11 kts | 181° |
| 2026-04-29 02:08 | 51.12155 | -114.01580 | 3551 ft | 11 kts | 195° |
| 2026-04-29 02:09 | 51.12088 | -114.01629 | 3548 ft | 10 kts | 209° |
| 2026-04-29 02:09 | 51.12025 | -114.01686 | 3549 ft | 11 kts | 210° |
| 2026-04-29 02:09 | 51.11957 | -114.01749 | 3550 ft | 12 kts | 211° |
| 2026-04-29 02:09 | 51.11882 | -114.01791 | 3551 ft | 11 kts | 184° |
| 2026-04-29 02:10 | 51.11804 | -114.01791 | 3552 ft | 11 kts | 180° |
| 2026-04-29 02:10 | 51.11728 | -114.01791 | 3553 ft | 11 kts | 180° |
| 2026-04-29 02:10 | 51.11653 | -114.01792 | 3553 ft | 11 kts | 180° |
| 2026-04-29 02:10 | 51.11569 | -114.01793 | 3553 ft | 14 kts | 182° |
| 2026-04-29 02:11 | 51.11456 | -114.01795 | 3553 ft | 20 kts | 180° |
| 2026-04-29 02:11 | 51.11310 | -114.01796 | 3554 ft | 21 kts | 180° |
| 2026-04-29 02:11 | 51.11166 | -114.01795 | 3555 ft | 20 kts | 180° |
| 2026-04-29 02:11 | 51.11026 | -114.01793 | 3555 ft | 20 kts | 179° |
| 2026-04-29 02:12 | 51.10893 | -114.01790 | 3557 ft | 19 kts | 180° |
| 2026-04-29 02:12 | 51.10760 | -114.01791 | 3558 ft | 18 kts | 181° |
| 2026-04-29 02:12 | 51.10635 | -114.01796 | 3559 ft | 18 kts | 180° |
| 2026-04-29 02:12 | 51.10517 | -114.01795 | 3561 ft | 16 kts | 180° |
| 2026-04-29 02:13 | 51.10407 | -114.01797 | 3562 ft | 16 kts | 181° |
| 2026-04-29 02:13 | 51.10301 | -114.01797 | 3559 ft | 15 kts | 179° |
| 2026-04-29 02:13 | 51.10200 | -114.01794 | 3559 ft | 14 kts | 179° |
| 2026-04-29 02:13 | 51.10103 | -114.01794 | 3560 ft | 14 kts | 182° |
| 2026-04-29 02:14 | 51.10010 | -114.01798 | 3562 ft | 13 kts | 179° |
| 2026-04-29 02:14 | 51.09921 | -114.01796 | 3562 ft | 13 kts | 179° |
| 2026-04-29 02:14 | 51.09833 | -114.01795 | 3560 ft | 12 kts | 179° |
| 2026-04-29 02:14 | 51.09748 | -114.01797 | 3564 ft | 12 kts | 187° |
| 2026-04-29 02:15 | 51.09690 | -114.01879 | 3567 ft | 12 kts | 252° |
| 2026-04-29 02:15 | 51.09686 | -114.02007 | 3572 ft | 11 kts | 271° |
| 2026-04-29 02:15 | 51.09701 | -114.02115 | 3570 ft | 9 kts | 315° |
| 2026-04-29 02:15 | 51.09736 | -114.02135 | 3563 ft | 0 kts | 1° |
| 2026-04-29 02:16 | 51.09755 | -114.02135 | 3564 ft | 18 kts | 359° |
| 2026-04-29 02:16 | 51.10127 | -114.02138 | 3560 ft | 88 kts | 0° |
| 2026-04-29 02:16 | 51.10948 | -114.02133 | 3559 ft | 145 kts | 360° |
| 2026-04-29 02:16 | 51.12110 | -114.02125 | 3718 ft | 180 kts | 2° |
| 2026-04-29 02:17 | 51.13333 | -114.02151 | 4725 ft | 169 kts | 3° |
| 2026-04-29 02:17 | 51.14475 | -114.02131 | 5578 ft | 166 kts | 4° |
| 2026-04-29 02:17 | 51.15712 | -114.02091 | 5877 ft | 193 kts | 0° |
| 2026-04-29 02:17 | 51.17122 | -114.02135 | 6108 ft | 214 kts | 358° |
| 2026-04-29 02:18 | 51.18677 | -114.02252 | 6349 ft | 233 kts | 356° |
| 2026-04-29 02:18 | 51.20380 | -114.02434 | 6493 ft | 259 kts | 355° |
| 2026-04-29 02:18 | 51.22225 | -114.02337 | 7047 ft | 269 kts | 5° |
| 2026-04-29 02:18 | 51.24082 | -114.01983 | 7910 ft | 268 kts | 5° |
| 2026-04-29 02:19 | 51.25946 | -114.01597 | 8660 ft | 272 kts | 5° |
| 2026-04-29 02:19 | 51.27834 | -114.01217 | 9423 ft | 275 kts | 4° |
| 2026-04-29 02:19 | 51.29739 | -114.00849 | 10239 ft | 276 kts | 4° |
| 2026-04-29 02:19 | 51.31707 | -114.00486 | 10561 ft | 296 kts | 4° |
| 2026-04-29 02:20 | 51.33834 | -114.00106 | 10740 ft | 318 kts | 4° |
| 2026-04-29 02:20 | 51.36077 | -113.99708 | 11226 ft | 329 kts | 4° |
| 2026-04-29 02:20 | 51.38359 | -113.99303 | 11960 ft | 331 kts | 4° |
| 2026-04-29 02:20 | 51.40618 | -113.98904 | 12784 ft | 331 kts | 4° |
| 2026-04-29 02:21 | 51.42911 | -113.98501 | 13606 ft | 333 kts | 4° |
| 2026-04-29 02:21 | 51.45253 | -113.98092 | 14341 ft | 336 kts | 4° |
| 2026-04-29 02:21 | 51.47593 | -113.97683 | 14985 ft | 341 kts | 4° |
| 2026-04-29 02:21 | 51.49968 | -113.97186 | 15646 ft | 347 kts | 8° |
| 2026-04-29 02:22 | 51.52334 | -113.96374 | 16466 ft | 347 kts | 11° |
| 2026-04-29 02:22 | 51.54678 | -113.95515 | 17415 ft | 344 kts | 11° |
| 2026-04-29 02:22 | 51.57006 | -113.94669 | 18311 ft | 343 kts | 11° |
| 2026-04-29 02:22 | 51.59340 | -113.93839 | 19045 ft | 343 kts | 10° |
| 2026-04-29 02:23 | 51.61667 | -113.93017 | 19720 ft | 344 kts | 10° |
| 2026-04-29 02:23 | 51.63991 | -113.92153 | 20059 ft | 341 kts | 11° |
| 2026-04-29 02:23 | 51.66304 | -113.91237 | 20102 ft | 343 kts | 12° |
| 2026-04-29 02:23 | 51.68606 | -113.90306 | 20119 ft | 341 kts | 12° |
| 2026-04-29 02:24 | 51.70903 | -113.89372 | 20149 ft | 340 kts | 12° |
| 2026-04-29 02:24 | 51.73192 | -113.88444 | 20140 ft | 339 kts | 12° |
| 2026-04-29 02:24 | 51.75481 | -113.87519 | 20137 ft | 339 kts | 11° |
| 2026-04-29 02:25 | 51.80048 | -113.85676 | 20133 ft | 338 kts | 11° |
| 2026-04-29 02:25 | 51.82304 | -113.84766 | 20133 ft | 338 kts | 11° |
| 2026-04-29 02:25 | 51.84583 | -113.83847 | 20135 ft | 338 kts | 11° |
| 2026-04-29 02:25 | 51.86868 | -113.82925 | 20144 ft | 338 kts | 11° |
| 2026-04-29 02:26 | 51.89148 | -113.82004 | 20144 ft | 338 kts | 11° |
| 2026-04-29 02:26 | 51.91432 | -113.81081 | 20141 ft | 338 kts | 12° |
| 2026-04-29 02:26 | 51.93720 | -113.80155 | 20142 ft | 339 kts | 12° |
| 2026-04-29 02:26 | 51.95296 | -113.79517 | 20141 ft | 339 kts | 11° |
| 2026-04-29 02:27 | 51.96967 | -113.78840 | 20141 ft | 339 kts | 12° |
| 2026-04-29 02:27 | 51.99254 | -113.77912 | 20143 ft | 339 kts | 12° |
| 2026-04-29 02:27 | 52.01538 | -113.76984 | 20142 ft | 339 kts | 12° |
| 2026-04-29 02:27 | 52.03829 | -113.76053 | 20129 ft | 339 kts | 12° |
| 2026-04-29 02:28 | 52.06119 | -113.75121 | 20130 ft | 339 kts | 12° |
| 2026-04-29 02:28 | 52.08410 | -113.74188 | 20117 ft | 340 kts | 12° |
| 2026-04-29 02:28 | 52.10703 | -113.73253 | 20139 ft | 340 kts | 12° |
| 2026-04-29 02:28 | 52.12999 | -113.72315 | 20130 ft | 340 kts | 11° |
| 2026-04-29 02:29 | 52.15265 | -113.71387 | 20114 ft | 330 kts | 11° |
| 2026-04-29 02:29 | 52.17456 | -113.70488 | 20032 ft | 321 kts | 11° |
| 2026-04-29 02:29 | 52.19615 | -113.69603 | 19831 ft | 317 kts | 11° |
| 2026-04-29 02:29 | 52.21746 | -113.68730 | 19524 ft | 315 kts | 11° |
| 2026-04-29 02:30 | 52.23862 | -113.67862 | 19249 ft | 311 kts | 11° |
| 2026-04-29 02:30 | 52.25948 | -113.67006 | 18942 ft | 309 kts | 11° |
| 2026-04-29 02:30 | 52.28031 | -113.66150 | 18624 ft | 308 kts | 11° |
| 2026-04-29 02:30 | 52.30105 | -113.65298 | 18274 ft | 307 kts | 11° |
| 2026-04-29 02:31 | 52.32176 | -113.64445 | 17906 ft | 307 kts | 11° |
| 2026-04-29 02:31 | 52.34238 | -113.63595 | 17573 ft | 304 kts | 11° |
| 2026-04-29 02:31 | 52.36284 | -113.62751 | 17253 ft | 302 kts | 12° |
| 2026-04-29 02:31 | 52.38314 | -113.61912 | 16944 ft | 300 kts | 12° |
| 2026-04-29 02:32 | 52.39651 | -113.61360 | 16730 ft | 298 kts | 12° |
| 2026-04-29 02:32 | 52.42331 | -113.60250 | 16312 ft | 295 kts | 11° |
| 2026-04-29 02:32 | 52.44316 | -113.59427 | 16008 ft | 293 kts | 11° |
| 2026-04-29 02:32 | 52.46290 | -113.58609 | 15704 ft | 292 kts | 11° |
| 2026-04-29 02:33 | 52.48250 | -113.57795 | 15399 ft | 290 kts | 11° |
| 2026-04-29 02:33 | 52.50174 | -113.56996 | 15096 ft | 288 kts | 11° |
| 2026-04-29 02:33 | 52.52140 | -113.56179 | 14809 ft | 287 kts | 11° |
| 2026-04-29 02:33 | 52.54070 | -113.55376 | 14493 ft | 286 kts | 11° |
| 2026-04-29 02:34 | 52.55966 | -113.54586 | 14198 ft | 284 kts | 11° |
| 2026-04-29 02:34 | 52.57885 | -113.53787 | 14092 ft | 286 kts | 11° |
| 2026-04-29 02:34 | 52.59802 | -113.52987 | 14042 ft | 282 kts | 11° |
| 2026-04-29 02:34 | 52.61663 | -113.52208 | 14023 ft | 270 kts | 10° |
| 2026-04-29 02:35 | 52.63464 | -113.51869 | 14024 ft | 253 kts | 356° |
| 2026-04-29 02:35 | 52.65176 | -113.52014 | 14013 ft | 241 kts | 354° |
| 2026-04-29 02:35 | 52.66806 | -113.52175 | 14015 ft | 229 kts | 354° |
| 2026-04-29 02:35 | 52.68372 | -113.52328 | 14019 ft | 222 kts | 354° |
| 2026-04-29 02:36 | 52.69922 | -113.52477 | 14034 ft | 226 kts | 354° |
| 2026-04-29 02:36 | 52.71521 | -113.52627 | 14053 ft | 233 kts | 354° |
| 2026-04-29 02:36 | 52.73154 | -113.52776 | 14050 ft | 236 kts | 355° |
| 2026-04-29 02:36 | 52.74238 | -113.52872 | 14041 ft | 234 kts | 355° |
| 2026-04-29 02:37 | 52.75856 | -113.53013 | 14022 ft | 232 kts | 355° |
| 2026-04-29 02:37 | 52.77467 | -113.53153 | 13835 ft | 232 kts | 355° |
| 2026-04-29 02:37 | 52.79083 | -113.53292 | 13458 ft | 234 kts | 355° |
| 2026-04-29 02:37 | 52.80734 | -113.53434 | 12885 ft | 244 kts | 355° |
| 2026-04-29 02:38 | 52.82517 | -113.53589 | 11974 ft | 267 kts | 355° |
| 2026-04-29 02:38 | 52.84384 | -113.53748 | 11642 ft | 267 kts | 355° |
| 2026-04-29 02:38 | 52.86209 | -113.53900 | 11543 ft | 258 kts | 355° |
| 2026-04-29 02:38 | 52.87985 | -113.54049 | 11281 ft | 252 kts | 355° |
| 2026-04-29 02:39 | 52.89738 | -113.54196 | 10799 ft | 253 kts | 355° |
| 2026-04-29 02:39 | 52.91489 | -113.54344 | 10375 ft | 250 kts | 355° |
| 2026-04-29 02:39 | 52.93169 | -113.54485 | 10278 ft | 237 kts | 355° |
| 2026-04-29 02:39 | 52.94787 | -113.54622 | 10164 ft | 229 kts | 355° |
| 2026-04-29 02:40 | 52.96356 | -113.54756 | 9826 ft | 225 kts | 355° |
| 2026-04-29 02:40 | 52.97947 | -113.54896 | 9320 ft | 229 kts | 355° |
| 2026-04-29 02:40 | 52.99526 | -113.55029 | 8949 ft | 226 kts | 355° |
| 2026-04-29 02:40 | 53.01100 | -113.55162 | 8508 ft | 227 kts | 355° |
| 2026-04-29 02:41 | 53.02679 | -113.55296 | 8100 ft | 228 kts | 355° |
| 2026-04-29 02:41 | 53.04259 | -113.55179 | 7647 ft | 231 kts | 15° |
| 2026-04-29 02:41 | 53.05661 | -113.53827 | 7321 ft | 237 kts | 37° |
| 2026-04-29 02:41 | 53.06856 | -113.51937 | 7110 ft | 236 kts | 42° |
| 2026-04-29 02:42 | 53.07997 | -113.49989 | 6905 ft | 234 kts | 43° |
| 2026-04-29 02:42 | 53.09133 | -113.48058 | 6691 ft | 230 kts | 42° |
| 2026-04-29 02:42 | 53.10213 | -113.46233 | 6569 ft | 215 kts | 42° |
| 2026-04-29 02:42 | 53.11254 | -113.44479 | 6157 ft | 212 kts | 43° |
| 2026-04-29 02:43 | 53.12290 | -113.42745 | 5771 ft | 210 kts | 43° |
| 2026-04-29 02:43 | 53.13317 | -113.41030 | 5330 ft | 208 kts | 43° |
| 2026-04-29 02:43 | 53.14342 | -113.39318 | 5090 ft | 210 kts | 44° |
| 2026-04-29 02:43 | 53.15466 | -113.37676 | 5056 ft | 219 kts | 28° |
| 2026-04-29 02:44 | 53.16925 | -113.37316 | 5032 ft | 215 kts | 346° |
| 2026-04-29 02:44 | 53.18167 | -113.38630 | 5051 ft | 215 kts | 314° |
| 2026-04-29 02:44 | 53.19204 | -113.40440 | 5026 ft | 217 kts | 316° |
| 2026-04-29 02:44 | 53.20291 | -113.42235 | 4803 ft | 222 kts | 316° |
| 2026-04-29 02:45 | 53.21380 | -113.44056 | 4477 ft | 220 kts | 316° |
| 2026-04-29 02:45 | 53.22422 | -113.45809 | 4172 ft | 205 kts | 316° |
| 2026-04-29 02:45 | 53.23392 | -113.47442 | 3902 ft | 191 kts | 316° |
| 2026-04-29 02:45 | 53.24300 | -113.48965 | 3663 ft | 180 kts | 316° |
| 2026-04-29 02:46 | 53.25163 | -113.50414 | 3427 ft | 172 kts | 316° |
| 2026-04-29 02:46 | 53.25977 | -113.51788 | 3264 ft | 157 kts | 316° |
| 2026-04-29 02:46 | 53.26691 | -113.52989 | 3020 ft | 139 kts | 317° |
| 2026-04-29 02:46 | 53.27362 | -113.54124 | 2764 ft | 138 kts | 316° |
| 2026-04-29 02:47 | 53.28028 | -113.55245 | 2564 ft | 135 kts | 317° |
| 2026-04-29 02:47 | 53.28669 | -113.56310 | 2381 ft | 123 kts | 320° |
| 2026-04-29 02:47 | 53.29206 | -113.57196 | 2350 ft | 83 kts | 315° |
| 2026-04-29 02:47 | 53.29535 | -113.57744 | 2350 ft | 64 kts | 315° |
| 2026-04-29 02:48 | 53.29802 | -113.58173 | 2355 ft | 27 kts | 329° |
| 2026-04-29 02:48 | 53.29965 | -113.58206 | 2354 ft | 22 kts | 360° |
| 2026-04-29 02:48 | 53.30076 | -113.58209 | 2354 ft | 10 kts | 354° |
| 2026-04-29 02:48 | 53.30132 | -113.58272 | 2355 ft | 10 kts | 314° |
| 2026-04-29 02:49 | 53.30192 | -113.58303 | 2355 ft | 10 kts | 24° |
| 2026-04-29 02:49 | 53.30238 | -113.58231 | 2354 ft | 9 kts | 46° |
| 2026-04-29 02:49 | 53.30286 | -113.58174 | 2354 ft | 9 kts | 7° |
| 2026-04-29 02:49 | 53.30335 | -113.58223 | 2354 ft | 8 kts | 312° |
| 2026-04-29 02:50 | 53.30372 | -113.58296 | 2354 ft | 8 kts | 311° |
| 2026-04-29 02:50 | 53.30410 | -113.58363 | 2354 ft | 8 kts | 315° |
| 2026-04-29 02:50 | 53.30447 | -113.58426 | 2355 ft | 7 kts | 315° |
| 2026-04-29 02:50 | 53.30467 | -113.58449 | 2354 ft | 3 kts | 342° |
| 2026-04-29 02:51 | 53.30486 | -113.58431 | 2354 ft | 3 kts | 47° |
| 2026-04-29 02:51 | 53.30504 | -113.58403 | 2354 ft | 3 kts | 42° |
| 2026-04-29 02:51 | 53.30522 | -113.58376 | 2354 ft | 3 kts | 41° |
| 2026-04-29 02:51 | 53.30537 | -113.58355 | 2354 ft | 2 kts | 40° |
| 2026-04-29 02:52 | 53.30542 | -113.58347 | 2354 ft | 0 kts | 40° |
| 2026-04-29 02:52 | 53.30543 | -113.58345 | 2354 ft | 0 kts | 40° |
| 2026-04-29 02:52 | 53.30544 | -113.58344 | 2354 ft | 1 kts | 40° |
| 2026-04-29 02:52 | 53.30545 | -113.58343 | 2354 ft | 0 kts | 40° |